Norman, North Carolina
Current Conditions -  °F | °C
As of 9:56 PM on Friday 19 Dec 2014 (Local Time) from KHFF Reporting Station
Few Clouds Few Clouds  
Wind Chill: 37°   Ceiling: Unl
Heat Index: 37°   Visibility: 10mi
Dew Point: 35°   Wind: 2mph
Humidity: 91%   Direction: 40°NE
Pressure: 30.21"   Gusts: NA
Location:  35.17°N, 79.72°W
Report Text: KHFF 200256Z AUTO 04002KT 10SM FEW220 03/02 A3021 RMK AO2 SLP235 T00300016 51012
Loading
Personal Weather Stations






























Interactive Weather Map New forecast layout! Learn more

10-Day Weather Forecast

Advertisements
Track Severe Weather on mobile